Apple Springs, Texas
Current Conditions -  °F | °C
As of 2:34 AM on Friday 19 Dec 2014 (Local Time) from KLFK Reporting Station
Light Rain Light Rain  
Wind Chill: 54°   Ceiling: 700
Heat Index: 54°   Visibility: 5mi
Dew Point: 49°   Wind: 6mph
Humidity: 83%   Direction: 40°NE
Pressure: 30.08"   Gusts: NA
Location:  31.22°N, 94.97°W
Report Text: KLFK 190834Z AUTO 04005KT 5SM -RA OVC007 12/09 A3008 RMK AO2 P0002 T01220094
Loading
Personal Weather Stations






























Interactive Weather Map New forecast layout! Learn more

10-Day Weather Forecast

Advertisements
Track Severe Weather on mobile